sensor_id;sensor_type;location;lat;lon;timestamp;P1;durP1;ratioP1;P2;durP2;ratioP2
48853;SDS011;34673;52.808;17.856;2024-01-15T00:01:01;21.70;;;12.93;;
48853;SDS011;34673;52.808;17.856;2024-01-15T00:03:28;25.00;;;13.77;;
48853;SDS011;34673;52.808;17.856;2024-01-15T00:05:55;21.67;;;13.13;;
48853;SDS011;34673;52.808;17.856;2024-01-15T00:08:22;21.70;;;13.10;;
48853;SDS011;34673;52.808;17.856;2024-01-15T00:10:49;21.38;;;13.73;;
48853;SDS011;34673;52.808;17.856;2024-01-15T00:13:16;26.38;;;15.50;;
48853;SDS011;34673;52.808;17.856;2024-01-15T00:15:43;22.92;;;14.18;;
48853;SDS011;34673;52.808;17.856;2024-01-15T00:18:11;22.23;;;13.10;;
48853;SDS011;34673;52.808;17.856;2024-01-15T00:20:38;20.85;;;12.75;;
48853;SDS011;34673;52.808;17.856;2024-01-15T00:23:05;20.85;;;12.82;;
48853;SDS011;34673;52.808;17.856;2024-01-15T00:25:32;21.38;;;13.55;;
48853;SDS011;34673;52.808;17.856;2024-01-15T00:27:59;20.83;;;12.20;;
48853;SDS011;34673;52.808;17.856;2024-01-15T00:30:26;19.63;;;11.80;;
48853;SDS011;34673;52.808;17.856;2024-01-15T00:32:53;22.27;;;13.02;;
48853;SDS011;34673;52.808;17.856;2024-01-15T00:35:20;21.75;;;13.18;;
48853;SDS011;34673;52.808;17.856;2024-01-15T00:37:48;20.25;;;11.52;;
48853;SDS011;34673;52.808;17.856;2024-01-15T00:40:15;21.95;;;13.00;;
48853;SDS011;34673;52.808;17.856;2024-01-15T00:42:42;17.63;;;11.27;;
48853;SDS011;34673;52.808;17.856;2024-01-15T00:45:09;20.10;;;12.00;;
48853;SDS011;34673;52.808;17.856;2024-01-15T00:47:37;18.60;;;11.65;;
48853;SDS011;34673;52.808;17.856;2024-01-15T00:50:04;19.92;;;11.90;;
48853;SDS011;34673;52.808;17.856;2024-01-15T00:52:32;19.90;;;12.25;;
48853;SDS011;34673;52.808;17.856;2024-01-15T00:54:59;25.08;;;15.02;;
48853;SDS011;34673;52.808;17.856;2024-01-15T00:57:26;21.73;;;12.82;;
48853;SDS011;34673;52.808;17.856;2024-01-15T00:59:53;19.63;;;11.65;;
48853;SDS011;34673;52.808;17.856;2024-01-15T01:02:20;22.65;;;13.25;;
48853;SDS011;34673;52.808;17.856;2024-01-15T01:04:47;20.38;;;12.13;;
48853;SDS011;34673;52.808;17.856;2024-01-15T01:07:14;22.83;;;13.93;;
48853;SDS011;34673;52.808;17.856;2024-01-15T01:09:41;24.88;;;14.85;;
48853;SDS011;34673;52.808;17.856;2024-01-15T01:12:08;21.92;;;13.55;;
48853;SDS011;34673;52.808;17.856;2024-01-15T01:14:36;26.63;;;15.82;;
48853;SDS011;34673;52.808;17.856;2024-01-15T01:17:03;23.90;;;14.32;;
48853;SDS011;34673;52.808;17.856;2024-01-15T01:19:30;23.13;;;14.25;;
48853;SDS011;34673;52.808;17.856;2024-01-15T01:21:57;24.58;;;13.63;;
48853;SDS011;34673;52.808;17.856;2024-01-15T01:24:24;24.10;;;14.05;;
48853;SDS011;34673;52.808;17.856;2024-01-15T01:26:51;23.15;;;13.65;;
48853;SDS011;34673;52.808;17.856;2024-01-15T01:29:18;25.10;;;13.50;;
48853;SDS011;34673;52.808;17.856;2024-01-15T01:31:46;22.55;;;13.55;;
48853;SDS011;34673;52.808;17.856;2024-01-15T01:34:13;22.80;;;13.73;;
48853;SDS011;34673;52.808;17.856;2024-01-15T01:36:41;27.80;;;14.48;;
48853;SDS011;34673;52.808;17.856;2024-01-15T01:39:09;19.10;;;11.90;;
48853;SDS011;34673;52.808;17.856;2024-01-15T01:41:37;19.63;;;11.88;;
48853;SDS011;34673;52.808;17.856;2024-01-15T01:44:05;20.90;;;12.88;;
48853;SDS011;34673;52.808;17.856;2024-01-15T01:46:32;19.75;;;11.05;;
48853;SDS011;34673;52.808;17.856;2024-01-15T01:49:00;21.20;;;12.90;;
48853;SDS011;34673;52.808;17.856;2024-01-15T01:51:33;21.30;;;12.05;;
48853;SDS011;34673;52.808;17.856;2024-01-15T01:54:02;18.90;;;11.27;;
48853;SDS011;34673;52.808;17.856;2024-01-15T01:56:30;21.30;;;12.15;;
48853;SDS011;34673;52.808;17.856;2024-01-15T01:58:58;22.15;;;13.02;;
48853;SDS011;34673;52.808;17.856;2024-01-15T02:01:28;20.85;;;12.18;;
48853;SDS011;34673;52.808;17.856;2024-01-15T02:03:56;17.42;;;10.15;;
48853;SDS011;34673;52.808;17.856;2024-01-15T02:06:23;18.17;;;10.27;;
48853;SDS011;34673;52.808;17.856;2024-01-15T02:08:51;16.85;;;9.95;;
48853;SDS011;34673;52.808;17.856;2024-01-15T02:11:18;17.50;;;10.57;;
48853;SDS011;34673;52.808;17.856;2024-01-15T02:13:45;16.10;;;9.70;;
48853;SDS011;34673;52.808;17.856;2024-01-15T02:16:13;17.65;;;10.57;;
48853;SDS011;34673;52.808;17.856;2024-01-15T02:18:43;17.92;;;10.77;;
48853;SDS011;34673;52.808;17.856;2024-01-15T02:21:11;17.58;;;10.73;;
48853;SDS011;34673;52.808;17.856;2024-01-15T02:23:38;20.27;;;10.75;;
48853;SDS011;34673;52.808;17.856;2024-01-15T02:26:05;14.80;;;9.68;;
48853;SDS011;34673;52.808;17.856;2024-01-15T02:28:33;20.25;;;11.88;;
48853;SDS011;34673;52.808;17.856;2024-01-15T02:31:00;23.20;;;13.70;;
48853;SDS011;34673;52.808;17.856;2024-01-15T02:33:28;19.80;;;11.32;;
48853;SDS011;34673;52.808;17.856;2024-01-15T02:35:55;18.40;;;11.02;;
48853;SDS011;34673;52.808;17.856;2024-01-15T02:38:22;18.27;;;11.35;;
48853;SDS011;34673;52.808;17.856;2024-01-15T02:40:49;19.02;;;10.68;;
48853;SDS011;34673;52.808;17.856;2024-01-15T02:43:17;20.45;;;11.73;;
48853;SDS011;34673;52.808;17.856;2024-01-15T02:45:46;18.17;;;11.52;;
48853;SDS011;34673;52.808;17.856;2024-01-15T02:50:43;17.52;;;9.88;;
48853;SDS011;34673;52.808;17.856;2024-01-15T02:53:10;17.67;;;11.10;;
48853;SDS011;34673;52.808;17.856;2024-01-15T02:55:37;19.35;;;11.63;;
48853;SDS011;34673;52.808;17.856;2024-01-15T02:58:04;19.77;;;11.30;;
48853;SDS011;34673;52.808;17.856;2024-01-15T03:00:31;18.67;;;12.02;;
48853;SDS011;34673;52.808;17.856;2024-01-15T03:02:58;18.88;;;11.82;;
48853;SDS011;34673;52.808;17.856;2024-01-15T03:05:25;19.40;;;11.32;;
48853;SDS011;34673;52.808;17.856;2024-01-15T03:07:53;20.35;;;11.43;;
48853;SDS011;34673;52.808;17.856;2024-01-15T03:10:20;17.15;;;10.88;;
48853;SDS011;34673;52.808;17.856;2024-01-15T03:12:47;17.52;;;10.50;;
48853;SDS011;34673;52.808;17.856;2024-01-15T03:15:14;18.85;;;11.48;;
48853;SDS011;34673;52.808;17.856;2024-01-15T03:17:41;18.15;;;11.15;;
48853;SDS011;34673;52.808;17.856;2024-01-15T03:20:11;19.90;;;11.85;;
48853;SDS011;34673;52.808;17.856;2024-01-15T03:22:38;17.17;;;9.95;;
48853;SDS011;34673;52.808;17.856;2024-01-15T03:25:06;17.90;;;10.73;;
48853;SDS011;34673;52.808;17.856;2024-01-15T03:27:33;18.13;;;10.88;;
48853;SDS011;34673;52.808;17.856;2024-01-15T03:30:00;21.08;;;11.23;;
48853;SDS011;34673;52.808;17.856;2024-01-15T03:32:28;19.58;;;11.45;;
48853;SDS011;34673;52.808;17.856;2024-01-15T03:34:56;18.85;;;11.35;;
48853;SDS011;34673;52.808;17.856;2024-01-15T03:37:23;20.10;;;11.52;;
48853;SDS011;34673;52.808;17.856;2024-01-15T03:39:50;23.33;;;12.82;;
48853;SDS011;34673;52.808;17.856;2024-01-15T03:42:17;27.55;;;14.73;;
48853;SDS011;34673;52.808;17.856;2024-01-15T03:44:44;23.83;;;12.63;;
48853;SDS011;34673;52.808;17.856;2024-01-15T03:47:11;24.00;;;13.00;;
48853;SDS011;34673;52.808;17.856;2024-01-15T03:49:38;26.40;;;13.60;;
48853;SDS011;34673;52.808;17.856;2024-01-15T03:52:06;28.50;;;14.65;;
48853;SDS011;34673;52.808;17.856;2024-01-15T03:54:33;30.17;;;14.27;;
48853;SDS011;34673;52.808;17.856;2024-01-15T03:57:00;28.88;;;14.90;;
48853;SDS011;34673;52.808;17.856;2024-01-15T03:59:27;28.10;;;13.98;;
48853;SDS011;34673;52.808;17.856;2024-01-15T04:01:54;29.58;;;15.52;;
48853;SDS011;34673;52.808;17.856;2024-01-15T04:04:21;31.98;;;16.15;;
48853;SDS011;34673;52.808;17.856;2024-01-15T04:06:48;29.80;;;15.70;;
48853;SDS011;34673;52.808;17.856;2024-01-15T04:09:15;28.55;;;14.52;;
48853;SDS011;34673;52.808;17.856;2024-01-15T04:11:42;34.20;;;16.30;;
48853;SDS011;34673;52.808;17.856;2024-01-15T04:14:09;32.80;;;16.98;;
48853;SDS011;34673;52.808;17.856;2024-01-15T04:16:37;28.05;;;14.18;;
48853;SDS011;34673;52.808;17.856;2024-01-15T04:19:04;30.00;;;15.35;;
48853;SDS011;34673;52.808;17.856;2024-01-15T04:21:31;33.47;;;15.90;;
48853;SDS011;34673;52.808;17.856;2024-01-15T04:23:59;26.30;;;13.70;;
48853;SDS011;34673;52.808;17.856;2024-01-15T04:26:26;24.67;;;13.23;;
48853;SDS011;34673;52.808;17.856;2024-01-15T04:28:53;30.60;;;15.32;;
48853;SDS011;34673;52.808;17.856;2024-01-15T04:31:23;26.20;;;13.70;;
48853;SDS011;34673;52.808;17.856;2024-01-15T04:33:52;30.60;;;14.23;;
48853;SDS011;34673;52.808;17.856;2024-01-15T04:36:19;27.80;;;13.55;;
48853;SDS011;34673;52.808;17.856;2024-01-15T04:38:46;28.85;;;14.13;;
48853;SDS011;34673;52.808;17.856;2024-01-15T04:41:14;21.80;;;11.93;;
48853;SDS011;34673;52.808;17.856;2024-01-15T04:43:42;27.05;;;13.57;;
48853;SDS011;34673;52.808;17.856;2024-01-15T04:46:09;22.38;;;12.25;;
48853;SDS011;34673;52.808;17.856;2024-01-15T04:48:36;20.00;;;11.23;;
48853;SDS011;34673;52.808;17.856;2024-01-15T04:51:04;26.30;;;12.93;;
48853;SDS011;34673;52.808;17.856;2024-01-15T04:53:32;23.25;;;12.05;;
48853;SDS011;34673;52.808;17.856;2024-01-15T04:56:01;22.98;;;12.43;;
48853;SDS011;34673;52.808;17.856;2024-01-15T04:58:28;22.77;;;11.43;;
48853;SDS011;34673;52.808;17.856;2024-01-15T05:00:56;19.95;;;9.25;;
48853;SDS011;34673;52.808;17.856;2024-01-15T05:03:23;19.40;;;11.15;;
48853;SDS011;34673;52.808;17.856;2024-01-15T05:05:50;14.75;;;7.38;;
48853;SDS011;34673;52.808;17.856;2024-01-15T05:08:18;17.33;;;7.82;;
48853;SDS011;34673;52.808;17.856;2024-01-15T05:10:45;14.82;;;7.60;;
48853;SDS011;34673;52.808;17.856;2024-01-15T05:13:12;13.65;;;7.13;;
48853;SDS011;34673;52.808;17.856;2024-01-15T05:15:39;13.43;;;6.95;;
48853;SDS011;34673;52.808;17.856;2024-01-15T05:18:07;11.75;;;6.10;;
48853;SDS011;34673;52.808;17.856;2024-01-15T05:20:34;10.82;;;6.20;;
48853;SDS011;34673;52.808;17.856;2024-01-15T05:23:01;15.38;;;8.27;;
48853;SDS011;34673;52.808;17.856;2024-01-15T05:25:28;14.60;;;7.78;;
48853;SDS011;34673;52.808;17.856;2024-01-15T05:27:55;14.25;;;7.72;;
48853;SDS011;34673;52.808;17.856;2024-01-15T05:30:22;13.88;;;7.97;;
48853;SDS011;34673;52.808;17.856;2024-01-15T05:32:50;13.75;;;7.38;;
48853;SDS011;34673;52.808;17.856;2024-01-15T05:35:17;10.90;;;5.88;;
48853;SDS011;34673;52.808;17.856;2024-01-15T05:37:44;11.40;;;6.85;;
48853;SDS011;34673;52.808;17.856;2024-01-15T05:40:12;12.30;;;6.65;;
48853;SDS011;34673;52.808;17.856;2024-01-15T05:42:40;13.10;;;6.20;;
48853;SDS011;34673;52.808;17.856;2024-01-15T05:45:08;9.25;;;5.78;;
48853;SDS011;34673;52.808;17.856;2024-01-15T05:47:36;10.00;;;5.45;;
48853;SDS011;34673;52.808;17.856;2024-01-15T05:50:03;9.60;;;5.07;;
48853;SDS011;34673;52.808;17.856;2024-01-15T05:52:30;11.27;;;5.13;;
48853;SDS011;34673;52.808;17.856;2024-01-15T05:54:57;8.10;;;4.25;;
48853;SDS011;34673;52.808;17.856;2024-01-15T05:57:24;9.90;;;4.38;;
48853;SDS011;34673;52.808;17.856;2024-01-15T05:59:52;10.07;;;3.92;;
48853;SDS011;34673;52.808;17.856;2024-01-15T06:02:19;8.27;;;3.80;;
48853;SDS011;34673;52.808;17.856;2024-01-15T06:04:46;9.43;;;4.15;;
48853;SDS011;34673;52.808;17.856;2024-01-15T06:07:13;6.25;;;3.85;;
48853;SDS011;34673;52.808;17.856;2024-01-15T06:09:40;10.85;;;4.32;;
48853;SDS011;34673;52.808;17.856;2024-01-15T06:12:07;9.50;;;4.20;;
48853;SDS011;34673;52.808;17.856;2024-01-15T06:14:35;10.73;;;4.85;;
48853;SDS011;34673;52.808;17.856;2024-01-15T06:17:02;11.52;;;5.93;;
48853;SDS011;34673;52.808;17.856;2024-01-15T06:19:29;9.30;;;5.35;;
48853;SDS011;34673;52.808;17.856;2024-01-15T06:21:57;9.95;;;4.32;;
48853;SDS011;34673;52.808;17.856;2024-01-15T06:24:24;13.90;;;4.30;;
48853;SDS011;34673;52.808;17.856;2024-01-15T06:26:51;9.35;;;4.50;;
48853;SDS011;34673;52.808;17.856;2024-01-15T06:29:18;9.95;;;4.32;;
48853;SDS011;34673;52.808;17.856;2024-01-15T06:31:45;9.93;;;4.53;;
48853;SDS011;34673;52.808;17.856;2024-01-15T06:34:12;10.85;;;4.32;;
48853;SDS011;34673;52.808;17.856;2024-01-15T06:36:39;10.98;;;4.60;;
48853;SDS011;34673;52.808;17.856;2024-01-15T06:39:07;9.52;;;4.65;;
48853;SDS011;34673;52.808;17.856;2024-01-15T06:41:34;12.45;;;5.57;;
48853;SDS011;34673;52.808;17.856;2024-01-15T06:44:01;13.50;;;5.55;;
48853;SDS011;34673;52.808;17.856;2024-01-15T06:46:28;11.82;;;5.18;;
48853;SDS011;34673;52.808;17.856;2024-01-15T06:48:55;12.57;;;5.57;;
48853;SDS011;34673;52.808;17.856;2024-01-15T06:51:22;11.88;;;5.40;;
48853;SDS011;34673;52.808;17.856;2024-01-15T06:53:49;13.88;;;6.00;;
48853;SDS011;34673;52.808;17.856;2024-01-15T06:56:17;14.35;;;6.20;;
48853;SDS011;34673;52.808;17.856;2024-01-15T06:58:43;17.17;;;6.00;;
48853;SDS011;34673;52.808;17.856;2024-01-15T07:01:11;15.30;;;5.88;;
48853;SDS011;34673;52.808;17.856;2024-01-15T07:03:38;11.15;;;5.47;;
48853;SDS011;34673;52.808;17.856;2024-01-15T07:06:05;16.60;;;6.13;;
48853;SDS011;34673;52.808;17.856;2024-01-15T07:08:32;11.00;;;4.93;;
48853;SDS011;34673;52.808;17.856;2024-01-15T07:10:59;11.73;;;5.53;;
48853;SDS011;34673;52.808;17.856;2024-01-15T07:13:30;13.23;;;5.78;;
48853;SDS011;34673;52.808;17.856;2024-01-15T07:15:58;12.77;;;5.88;;
48853;SDS011;34673;52.808;17.856;2024-01-15T07:18:25;13.32;;;6.18;;
48853;SDS011;34673;52.808;17.856;2024-01-15T07:20:53;16.45;;;6.30;;
48853;SDS011;34673;52.808;17.856;2024-01-15T07:23:20;11.73;;;5.70;;
48853;SDS011;34673;52.808;17.856;2024-01-15T07:25:47;11.80;;;6.25;;
48853;SDS011;34673;52.808;17.856;2024-01-15T07:28:14;15.82;;;6.53;;
48853;SDS011;34673;52.808;17.856;2024-01-15T07:30:41;16.60;;;6.30;;
48853;SDS011;34673;52.808;17.856;2024-01-15T07:33:08;14.13;;;6.40;;
48853;SDS011;34673;52.808;17.856;2024-01-15T07:35:35;14.48;;;6.57;;
48853;SDS011;34673;52.808;17.856;2024-01-15T07:38:02;16.77;;;6.40;;
48853;SDS011;34673;52.808;17.856;2024-01-15T07:40:30;14.02;;;6.25;;
48853;SDS011;34673;52.808;17.856;2024-01-15T07:42:57;13.13;;;5.97;;
48853;SDS011;34673;52.808;17.856;2024-01-15T07:45:24;12.25;;;5.70;;
48853;SDS011;34673;52.808;17.856;2024-01-15T07:47:51;11.98;;;6.00;;
48853;SDS011;34673;52.808;17.856;2024-01-15T07:50:19;15.60;;;5.75;;
48853;SDS011;34673;52.808;17.856;2024-01-15T07:52:46;14.70;;;6.45;;
48853;SDS011;34673;52.808;17.856;2024-01-15T07:55:13;12.35;;;5.22;;
48853;SDS011;34673;52.808;17.856;2024-01-15T07:57:40;11.50;;;5.75;;
48853;SDS011;34673;52.808;17.856;2024-01-15T08:00:07;13.90;;;6.10;;
48853;SDS011;34673;52.808;17.856;2024-01-15T08:02:36;12.38;;;5.28;;
48853;SDS011;34673;52.808;17.856;2024-01-15T08:05:03;16.67;;;6.32;;
48853;SDS011;34673;52.808;17.856;2024-01-15T08:07:31;11.10;;;5.57;;
48853;SDS011;34673;52.808;17.856;2024-01-15T08:09:58;15.18;;;5.95;;
48853;SDS011;34673;52.808;17.856;2024-01-15T08:12:26;15.32;;;6.53;;
48853;SDS011;34673;52.808;17.856;2024-01-15T08:14:53;14.52;;;6.00;;
48853;SDS011;34673;52.808;17.856;2024-01-15T08:17:20;15.02;;;5.60;;
48853;SDS011;34673;52.808;17.856;2024-01-15T08:19:48;11.70;;;5.70;;
48853;SDS011;34673;52.808;17.856;2024-01-15T08:22:15;16.58;;;6.53;;
48853;SDS011;34673;52.808;17.856;2024-01-15T08:24:43;12.85;;;6.03;;
48853;SDS011;34673;52.808;17.856;2024-01-15T08:27:11;11.77;;;5.68;;
48853;SDS011;34673;52.808;17.856;2024-01-15T08:29:38;14.98;;;5.65;;
48853;SDS011;34673;52.808;17.856;2024-01-15T08:32:05;16.55;;;6.97;;
48853;SDS011;34673;52.808;17.856;2024-01-15T08:34:33;13.70;;;5.97;;
48853;SDS011;34673;52.808;17.856;2024-01-15T08:37:00;15.55;;;6.45;;
48853;SDS011;34673;52.808;17.856;2024-01-15T08:39:27;12.80;;;6.00;;
48853;SDS011;34673;52.808;17.856;2024-01-15T08:41:54;12.80;;;6.03;;
48853;SDS011;34673;52.808;17.856;2024-01-15T08:44:21;12.80;;;5.28;;
48853;SDS011;34673;52.808;17.856;2024-01-15T08:46:48;10.70;;;5.47;;
48853;SDS011;34673;52.808;17.856;2024-01-15T08:49:15;12.73;;;5.55;;
48853;SDS011;34673;52.808;17.856;2024-01-15T08:51:42;11.10;;;5.35;;
48853;SDS011;34673;52.808;17.856;2024-01-15T08:54:10;15.10;;;5.85;;
48853;SDS011;34673;52.808;17.856;2024-01-15T08:56:37;14.57;;;5.78;;
48853;SDS011;34673;52.808;17.856;2024-01-15T08:59:04;10.38;;;5.20;;
48853;SDS011;34673;52.808;17.856;2024-01-15T09:01:31;15.25;;;7.15;;
48853;SDS011;34673;52.808;17.856;2024-01-15T09:03:58;12.50;;;5.30;;
48853;SDS011;34673;52.808;17.856;2024-01-15T09:06:25;13.63;;;5.63;;
48853;SDS011;34673;52.808;17.856;2024-01-15T09:08:53;12.13;;;5.90;;
48853;SDS011;34673;52.808;17.856;2024-01-15T09:11:20;14.98;;;6.13;;
48853;SDS011;34673;52.808;17.856;2024-01-15T09:13:47;11.95;;;5.72;;
48853;SDS011;34673;52.808;17.856;2024-01-15T09:16:14;13.82;;;6.55;;
48853;SDS011;34673;52.808;17.856;2024-01-15T09:18:41;16.63;;;6.90;;
48853;SDS011;34673;52.808;17.856;2024-01-15T09:21:08;12.73;;;6.15;;
48853;SDS011;34673;52.808;17.856;2024-01-15T09:23:35;16.20;;;6.65;;
48853;SDS011;34673;52.808;17.856;2024-01-15T09:26:02;14.25;;;5.90;;
48853;SDS011;34673;52.808;17.856;2024-01-15T09:28:29;12.23;;;5.50;;
48853;SDS011;34673;52.808;17.856;2024-01-15T09:30:57;13.82;;;6.13;;
48853;SDS011;34673;52.808;17.856;2024-01-15T09:33:24;20.20;;;7.20;;
48853;SDS011;34673;52.808;17.856;2024-01-15T09:35:51;12.15;;;6.03;;
48853;SDS011;34673;52.808;17.856;2024-01-15T09:38:19;12.68;;;6.00;;
48853;SDS011;34673;52.808;17.856;2024-01-15T09:40:47;16.92;;;5.60;;
48853;SDS011;34673;52.808;17.856;2024-01-15T09:43:14;11.63;;;5.55;;
48853;SDS011;34673;52.808;17.856;2024-01-15T09:45:42;12.40;;;5.10;;
48853;SDS011;34673;52.808;17.856;2024-01-15T09:48:10;14.30;;;5.60;;
48853;SDS011;34673;52.808;17.856;2024-01-15T09:50:39;14.50;;;5.65;;
48853;SDS011;34673;52.808;17.856;2024-01-15T09:53:06;11.93;;;5.75;;
48853;SDS011;34673;52.808;17.856;2024-01-15T09:55:33;14.82;;;5.68;;
48853;SDS011;34673;52.808;17.856;2024-01-15T09:58:01;10.98;;;4.80;;
48853;SDS011;34673;52.808;17.856;2024-01-15T10:00:29;15.25;;;6.72;;
48853;SDS011;34673;52.808;17.856;2024-01-15T10:02:59;15.95;;;6.75;;
48853;SDS011;34673;52.808;17.856;2024-01-15T10:05:27;13.02;;;6.25;;
48853;SDS011;34673;52.808;17.856;2024-01-15T10:07:54;17.63;;;6.55;;
48853;SDS011;34673;52.808;17.856;2024-01-15T10:10:24;15.30;;;6.22;;
48853;SDS011;34673;52.808;17.856;2024-01-15T10:12:51;14.80;;;6.00;;
48853;SDS011;34673;52.808;17.856;2024-01-15T10:15:23;14.05;;;6.35;;
48853;SDS011;34673;52.808;17.856;2024-01-15T10:17:51;15.52;;;6.75;;
48853;SDS011;34673;52.808;17.856;2024-01-15T10:20:18;12.75;;;6.80;;
48853;SDS011;34673;52.808;17.856;2024-01-15T10:22:45;12.27;;;6.50;;
48853;SDS011;34673;52.808;17.856;2024-01-15T10:25:13;12.18;;;6.97;;
48853;SDS011;34673;52.808;17.856;2024-01-15T10:27:41;12.07;;;5.25;;
48853;SDS011;34673;52.808;17.856;2024-01-15T10:30:09;14.55;;;7.00;;
48853;SDS011;34673;52.808;17.856;2024-01-15T10:35:31;9.13;;;4.57;;
48853;SDS011;34673;52.808;17.856;2024-01-15T10:37:59;10.75;;;4.50;;
48853;SDS011;34673;52.808;17.856;2024-01-15T10:40:28;7.70;;;4.13;;
48853;SDS011;34673;52.808;17.856;2024-01-15T10:42:55;7.15;;;3.03;;
48853;SDS011;34673;52.808;17.856;2024-01-15T10:45:23;7.43;;;3.03;;
48853;SDS011;34673;52.808;17.856;2024-01-15T10:47:50;7.88;;;2.80;;
48853;SDS011;34673;52.808;17.856;2024-01-15T10:50:18;8.77;;;3.00;;
48853;SDS011;34673;52.808;17.856;2024-01-15T10:52:45;9.23;;;3.33;;
48853;SDS011;34673;52.808;17.856;2024-01-15T10:55:13;6.85;;;2.85;;
48853;SDS011;34673;52.808;17.856;2024-01-15T10:57:45;9.02;;;2.65;;
48853;SDS011;34673;52.808;17.856;2024-01-15T11:00:16;8.18;;;3.05;;
48853;SDS011;34673;52.808;17.856;2024-01-15T11:02:44;9.25;;;3.30;;
48853;SDS011;34673;52.808;17.856;2024-01-15T11:05:12;7.65;;;2.75;;
48853;SDS011;34673;52.808;17.856;2024-01-15T11:07:39;9.75;;;2.83;;
48853;SDS011;34673;52.808;17.856;2024-01-15T11:10:08;9.38;;;2.72;;
48853;SDS011;34673;52.808;17.856;2024-01-15T11:18:28;10.23;;;2.85;;
48853;SDS011;34673;52.808;17.856;2024-01-15T11:23:47;8.63;;;2.67;;
48853;SDS011;34673;52.808;17.856;2024-01-15T11:37:28;5.47;;;1.85;;
48853;SDS011;34673;52.808;17.856;2024-01-15T11:40:17;6.55;;;2.15;;
48853;SDS011;34673;52.808;17.856;2024-01-15T11:42:45;11.38;;;2.60;;
48853;SDS011;34673;52.808;17.856;2024-01-15T11:45:20;7.75;;;2.80;;
48853;SDS011;34673;52.808;17.856;2024-01-15T11:50:21;6.68;;;2.53;;
48853;SDS011;34673;52.808;17.856;2024-01-15T11:52:51;9.00;;;3.08;;
48853;SDS011;34673;52.808;17.856;2024-01-15T11:55:38;9.93;;;3.33;;
48853;SDS011;34673;52.808;17.856;2024-01-15T11:58:08;8.95;;;2.80;;
48853;SDS011;34673;52.808;17.856;2024-01-15T12:00:40;7.68;;;2.40;;
48853;SDS011;34673;52.808;17.856;2024-01-15T12:03:09;10.73;;;2.60;;
48853;SDS011;34673;52.808;17.856;2024-01-15T12:05:37;12.05;;;3.20;;
48853;SDS011;34673;52.808;17.856;2024-01-15T12:08:07;8.30;;;2.70;;
48853;SDS011;34673;52.808;17.856;2024-01-15T12:10:38;10.32;;;3.30;;
48853;SDS011;34673;52.808;17.856;2024-01-15T12:13:12;12.70;;;3.20;;
48853;SDS011;34673;52.808;17.856;2024-01-15T12:15:41;10.45;;;3.45;;
48853;SDS011;34673;52.808;17.856;2024-01-15T12:18:10;7.40;;;2.53;;
48853;SDS011;34673;52.808;17.856;2024-01-15T12:20:40;8.23;;;2.90;;
48853;SDS011;34673;52.808;17.856;2024-01-15T12:23:09;5.37;;;2.00;;
48853;SDS011;34673;52.808;17.856;2024-01-15T12:25:40;9.98;;;2.70;;
48853;SDS011;34673;52.808;17.856;2024-01-15T12:28:07;7.75;;;2.30;;
48853;SDS011;34673;52.808;17.856;2024-01-15T12:30:34;9.98;;;2.63;;
48853;SDS011;34673;52.808;17.856;2024-01-15T12:33:05;7.05;;;2.30;;
48853;SDS011;34673;52.808;17.856;2024-01-15T12:35:35;10.52;;;2.30;;
48853;SDS011;34673;52.808;17.856;2024-01-15T12:38:03;7.20;;;2.58;;
48853;SDS011;34673;52.808;17.856;2024-01-15T12:40:32;8.35;;;2.65;;
48853;SDS011;34673;52.808;17.856;2024-01-15T12:43:02;6.80;;;2.05;;
48853;SDS011;34673;52.808;17.856;2024-01-15T12:45:30;6.43;;;1.90;;
48853;SDS011;34673;52.808;17.856;2024-01-15T12:47:58;7.32;;;1.90;;
48853;SDS011;34673;52.808;17.856;2024-01-15T12:50:26;5.55;;;1.80;;
48853;SDS011;34673;52.808;17.856;2024-01-15T12:52:53;5.70;;;1.70;;
48853;SDS011;34673;52.808;17.856;2024-01-15T12:55:21;8.65;;;1.33;;
48853;SDS011;34673;52.808;17.856;2024-01-15T12:57:49;5.15;;;1.45;;
48853;SDS011;34673;52.808;17.856;2024-01-15T13:00:19;10.05;;;3.45;;
48853;SDS011;34673;52.808;17.856;2024-01-15T13:02:47;7.30;;;1.67;;
48853;SDS011;34673;52.808;17.856;2024-01-15T13:05:14;7.40;;;1.85;;
48853;SDS011;34673;52.808;17.856;2024-01-15T13:07:43;9.25;;;1.75;;
48853;SDS011;34673;52.808;17.856;2024-01-15T13:10:10;8.43;;;1.60;;
48853;SDS011;34673;52.808;17.856;2024-01-15T13:12:38;7.72;;;1.65;;
48853;SDS011;34673;52.808;17.856;2024-01-15T13:15:06;7.15;;;1.50;;
48853;SDS011;34673;52.808;17.856;2024-01-15T13:17:40;9.50;;;1.45;;
48853;SDS011;34673;52.808;17.856;2024-01-15T13:20:09;9.88;;;1.30;;
48853;SDS011;34673;52.808;17.856;2024-01-15T13:22:38;5.25;;;1.27;;
48853;SDS011;34673;52.808;17.856;2024-01-15T13:25:07;3.83;;;1.10;;
48853;SDS011;34673;52.808;17.856;2024-01-15T13:27:35;7.22;;;1.40;;
48853;SDS011;34673;52.808;17.856;2024-01-15T13:30:05;7.00;;;1.17;;
48853;SDS011;34673;52.808;17.856;2024-01-15T13:32:35;8.35;;;2.53;;
48853;SDS011;34673;52.808;17.856;2024-01-15T13:35:02;5.85;;;1.40;;
48853;SDS011;34673;52.808;17.856;2024-01-15T13:37:32;8.93;;;2.35;;
48853;SDS011;34673;52.808;17.856;2024-01-15T13:39:59;7.80;;;1.50;;
48853;SDS011;34673;52.808;17.856;2024-01-15T13:42:27;7.43;;;1.98;;
48853;SDS011;34673;52.808;17.856;2024-01-15T13:44:55;10.77;;;3.33;;
48853;SDS011;34673;52.808;17.856;2024-01-15T13:47:22;7.45;;;1.80;;
48853;SDS011;34673;52.808;17.856;2024-01-15T13:49:49;10.20;;;2.08;;
48853;SDS011;34673;52.808;17.856;2024-01-15T13:52:16;5.63;;;1.38;;
48853;SDS011;34673;52.808;17.856;2024-01-15T13:54:44;8.48;;;2.30;;
48853;SDS011;34673;52.808;17.856;2024-01-15T13:57:16;5.30;;;1.58;;
48853;SDS011;34673;52.808;17.856;2024-01-15T13:59:45;6.60;;;1.35;;
48853;SDS011;34673;52.808;17.856;2024-01-15T14:02:12;9.27;;;2.03;;
48853;SDS011;34673;52.808;17.856;2024-01-15T14:04:46;8.02;;;1.70;;
48853;SDS011;34673;52.808;17.856;2024-01-15T14:07:14;8.10;;;1.60;;
48853;SDS011;34673;52.808;17.856;2024-01-15T14:09:42;8.23;;;1.90;;
48853;SDS011;34673;52.808;17.856;2024-01-15T14:12:09;8.32;;;2.10;;
48853;SDS011;34673;52.808;17.856;2024-01-15T14:14:36;6.82;;;1.73;;
48853;SDS011;34673;52.808;17.856;2024-01-15T14:17:04;8.63;;;1.50;;
48853;SDS011;34673;52.808;17.856;2024-01-15T14:19:31;11.77;;;1.70;;
48853;SDS011;34673;52.808;17.856;2024-01-15T14:21:58;7.80;;;1.50;;
48853;SDS011;34673;52.808;17.856;2024-01-15T14:24:25;6.75;;;2.00;;
48853;SDS011;34673;52.808;17.856;2024-01-15T14:26:52;8.43;;;1.90;;
48853;SDS011;34673;52.808;17.856;2024-01-15T14:29:20;7.05;;;1.63;;
48853;SDS011;34673;52.808;17.856;2024-01-15T14:31:49;9.23;;;1.98;;
48853;SDS011;34673;52.808;17.856;2024-01-15T14:34:16;16.35;;;3.33;;
48853;SDS011;34673;52.808;17.856;2024-01-15T14:36:45;7.72;;;1.80;;
48853;SDS011;34673;52.808;17.856;2024-01-15T14:39:13;7.53;;;1.40;;
48853;SDS011;34673;52.808;17.856;2024-01-15T14:41:41;13.05;;;2.05;;
48853;SDS011;34673;52.808;17.856;2024-01-15T14:44:09;7.18;;;1.60;;
48853;SDS011;34673;52.808;17.856;2024-01-15T14:46:36;7.07;;;1.50;;
48853;SDS011;34673;52.808;17.856;2024-01-15T14:49:04;7.53;;;1.73;;
48853;SDS011;34673;52.808;17.856;2024-01-15T14:51:32;10.02;;;1.90;;